sensor_id;sensor_type;location;lat;lon;timestamp;temperature;humidity
65078;DHT22;51672;51.230;-2.322;2022-07-18T00:00:34;19.40;60.00
65078;DHT22;51672;51.230;-2.322;2022-07-18T00:04:16;19.30;62.90
65078;DHT22;51672;51.230;-2.322;2022-07-18T00:07:58;19.20;61.50
65078;DHT22;51672;51.230;-2.322;2022-07-18T00:11:40;19.20;60.60
65078;DHT22;51672;51.230;-2.322;2022-07-18T00:15:22;19.10;61.90
65078;DHT22;51672;51.230;-2.322;2022-07-18T00:19:05;19.10;62.40
65078;DHT22;51672;51.230;-2.322;2022-07-18T00:22:47;19.10;63.30
65078;DHT22;51672;51.230;-2.322;2022-07-18T00:26:29;19.10;61.00
65078;DHT22;51672;51.230;-2.322;2022-07-18T00:30:12;19.00;61.90
65078;DHT22;51672;51.230;-2.322;2022-07-18T00:33:54;18.90;62.30
65078;DHT22;51672;51.230;-2.322;2022-07-18T00:37:36;18.80;63.80
65078;DHT22;51672;51.230;-2.322;2022-07-18T00:41:18;18.80;64.00
65078;DHT22;51672;51.230;-2.322;2022-07-18T00:45:00;18.60;63.10
65078;DHT22;51672;51.230;-2.322;2022-07-18T00:48:42;18.60;63.40
65078;DHT22;51672;51.230;-2.322;2022-07-18T00:52:25;18.50;63.20
65078;DHT22;51672;51.230;-2.322;2022-07-18T00:56:07;18.40;62.70
65078;DHT22;51672;51.230;-2.322;2022-07-18T00:59:50;18.30;62.00
65078;DHT22;51672;51.230;-2.322;2022-07-18T01:03:51;18.20;62.60
65078;DHT22;51672;51.230;-2.322;2022-07-18T01:07:34;18.10;62.50
65078;DHT22;51672;51.230;-2.322;2022-07-18T01:11:17;18.10;63.90
65078;DHT22;51672;51.230;-2.322;2022-07-18T01:14:59;18.00;63.30
65078;DHT22;51672;51.230;-2.322;2022-07-18T01:18:49;17.90;62.90
65078;DHT22;51672;51.230;-2.322;2022-07-18T01:22:32;17.70;64.20
65078;DHT22;51672;51.230;-2.322;2022-07-18T01:26:15;17.70;65.00
65078;DHT22;51672;51.230;-2.322;2022-07-18T01:29:58;17.60;63.80
65078;DHT22;51672;51.230;-2.322;2022-07-18T01:33:40;17.50;65.70
65078;DHT22;51672;51.230;-2.322;2022-07-18T01:37:22;17.40;64.80
65078;DHT22;51672;51.230;-2.322;2022-07-18T01:41:05;17.40;66.00
65078;DHT22;51672;51.230;-2.322;2022-07-18T01:44:47;17.30;66.60
65078;DHT22;51672;51.230;-2.322;2022-07-18T01:48:29;17.30;67.50
65078;DHT22;51672;51.230;-2.322;2022-07-18T01:52:11;17.20;66.50
65078;DHT22;51672;51.230;-2.322;2022-07-18T01:55:53;17.20;67.10
65078;DHT22;51672;51.230;-2.322;2022-07-18T01:59:35;17.10;67.00
65078;DHT22;51672;51.230;-2.322;2022-07-18T02:03:17;17.10;67.00
65078;DHT22;51672;51.230;-2.322;2022-07-18T02:06:59;17.00;69.50
65078;DHT22;51672;51.230;-2.322;2022-07-18T02:10:41;17.00;68.50
65078;DHT22;51672;51.230;-2.322;2022-07-18T02:14:23;16.90;69.60
65078;DHT22;51672;51.230;-2.322;2022-07-18T02:18:05;16.90;70.50
65078;DHT22;51672;51.230;-2.322;2022-07-18T02:21:47;16.80;68.60
65078;DHT22;51672;51.230;-2.322;2022-07-18T02:25:29;16.80;68.80
65078;DHT22;51672;51.230;-2.322;2022-07-18T02:29:11;16.80;69.70
65078;DHT22;51672;51.230;-2.322;2022-07-18T02:32:53;16.70;70.30
65078;DHT22;51672;51.230;-2.322;2022-07-18T02:36:38;16.70;70.40
65078;DHT22;51672;51.230;-2.322;2022-07-18T02:40:20;16.70;69.50
65078;DHT22;51672;51.230;-2.322;2022-07-18T02:44:02;16.60;69.00
65078;DHT22;51672;51.230;-2.322;2022-07-18T02:47:45;16.60;69.90
65078;DHT22;51672;51.230;-2.322;2022-07-18T02:51:27;16.60;69.10
65078;DHT22;51672;51.230;-2.322;2022-07-18T02:55:10;16.50;70.10
65078;DHT22;51672;51.230;-2.322;2022-07-18T02:58:52;16.50;70.50
65078;DHT22;51672;51.230;-2.322;2022-07-18T03:02:34;16.40;69.60
65078;DHT22;51672;51.230;-2.322;2022-07-18T03:06:16;16.40;69.20
65078;DHT22;51672;51.230;-2.322;2022-07-18T03:09:58;16.40;70.80
65078;DHT22;51672;51.230;-2.322;2022-07-18T03:13:40;16.30;70.90
65078;DHT22;51672;51.230;-2.322;2022-07-18T03:17:22;16.30;70.90
65078;DHT22;51672;51.230;-2.322;2022-07-18T03:21:04;16.20;71.30
65078;DHT22;51672;51.230;-2.322;2022-07-18T03:24:46;16.20;71.90
65078;DHT22;51672;51.230;-2.322;2022-07-18T03:28:28;16.10;72.20
65078;DHT22;51672;51.230;-2.322;2022-07-18T03:32:10;16.10;72.40
65078;DHT22;51672;51.230;-2.322;2022-07-18T03:35:52;16.00;72.50
65078;DHT22;51672;51.230;-2.322;2022-07-18T03:39:34;15.90;72.40
65078;DHT22;51672;51.230;-2.322;2022-07-18T03:43:16;15.90;72.70
65078;DHT22;51672;51.230;-2.322;2022-07-18T03:46:58;15.80;73.10
65078;DHT22;51672;51.230;-2.322;2022-07-18T03:50:40;15.70;72.70
65078;DHT22;51672;51.230;-2.322;2022-07-18T03:54:23;15.70;73.20
65078;DHT22;51672;51.230;-2.322;2022-07-18T03:58:05;15.60;73.60
65078;DHT22;51672;51.230;-2.322;2022-07-18T04:01:47;15.60;73.90
65078;DHT22;51672;51.230;-2.322;2022-07-18T04:05:29;15.50;72.90
65078;DHT22;51672;51.230;-2.322;2022-07-18T04:09:11;15.50;73.60
65078;DHT22;51672;51.230;-2.322;2022-07-18T04:12:54;15.50;73.30
65078;DHT22;51672;51.230;-2.322;2022-07-18T04:16:36;15.40;74.40
65078;DHT22;51672;51.230;-2.322;2022-07-18T04:20:20;15.40;74.50
65078;DHT22;51672;51.230;-2.322;2022-07-18T04:24:02;15.40;75.30
65078;DHT22;51672;51.230;-2.322;2022-07-18T04:27:44;15.30;74.90
65078;DHT22;51672;51.230;-2.322;2022-07-18T04:31:26;15.30;75.60
65078;DHT22;51672;51.230;-2.322;2022-07-18T04:35:09;15.20;75.60
65078;DHT22;51672;51.230;-2.322;2022-07-18T04:38:52;15.10;76.30
65078;DHT22;51672;51.230;-2.322;2022-07-18T04:42:35;15.00;76.10
65078;DHT22;51672;51.230;-2.322;2022-07-18T04:46:17;14.90;76.40
65078;DHT22;51672;51.230;-2.322;2022-07-18T04:49:59;14.90;76.40
65078;DHT22;51672;51.230;-2.322;2022-07-18T04:53:41;15.00;76.00
65078;DHT22;51672;51.230;-2.322;2022-07-18T04:57:23;15.10;75.90
65078;DHT22;51672;51.230;-2.322;2022-07-18T05:01:05;15.20;76.40
65078;DHT22;51672;51.230;-2.322;2022-07-18T05:04:47;15.40;75.90
65078;DHT22;51672;51.230;-2.322;2022-07-18T05:08:28;15.50;76.30
65078;DHT22;51672;51.230;-2.322;2022-07-18T05:12:11;15.60;75.90
65078;DHT22;51672;51.230;-2.322;2022-07-18T05:15:53;15.80;76.10
65078;DHT22;51672;51.230;-2.322;2022-07-18T05:19:43;15.90;75.90
65078;DHT22;51672;51.230;-2.322;2022-07-18T05:23:25;16.00;75.20
65078;DHT22;51672;51.230;-2.322;2022-07-18T05:27:07;16.20;76.10
65078;DHT22;51672;51.230;-2.322;2022-07-18T05:30:59;16.50;75.70
65078;DHT22;51672;51.230;-2.322;2022-07-18T05:34:42;16.90;74.10
65078;DHT22;51672;51.230;-2.322;2022-07-18T05:38:24;17.30;74.60
65078;DHT22;51672;51.230;-2.322;2022-07-18T05:46:17;18.00;71.80
65078;DHT22;51672;51.230;-2.322;2022-07-18T05:53:50;19.10;69.90
65078;DHT22;51672;51.230;-2.322;2022-07-18T05:57:33;19.60;68.90
65078;DHT22;51672;51.230;-2.322;2022-07-18T06:01:26;20.00;67.70
65078;DHT22;51672;51.230;-2.322;2022-07-18T06:05:09;20.60;66.30
65078;DHT22;51672;51.230;-2.322;2022-07-18T06:09:36;21.10;64.00
65078;DHT22;51672;51.230;-2.322;2022-07-18T06:13:19;21.60;63.60
65078;DHT22;51672;51.230;-2.322;2022-07-18T06:17:12;22.20;62.30
65078;DHT22;51672;51.230;-2.322;2022-07-18T06:20:54;22.80;61.60
65078;DHT22;51672;51.230;-2.322;2022-07-18T06:24:36;23.40;58.60
65078;DHT22;51672;51.230;-2.322;2022-07-18T06:28:27;24.00;57.80
65078;DHT22;51672;51.230;-2.322;2022-07-18T06:32:10;24.60;57.60
65078;DHT22;51672;51.230;-2.322;2022-07-18T06:35:52;25.20;56.00
65078;DHT22;51672;51.230;-2.322;2022-07-18T06:39:43;25.90;54.20
65078;DHT22;51672;51.230;-2.322;2022-07-18T06:43:25;26.50;54.40
65078;DHT22;51672;51.230;-2.322;2022-07-18T06:47:07;27.30;51.50
65078;DHT22;51672;51.230;-2.322;2022-07-18T06:51:20;28.00;51.40
65078;DHT22;51672;51.230;-2.322;2022-07-18T06:55:03;28.80;52.50
65078;DHT22;51672;51.230;-2.322;2022-07-18T06:58:54;29.50;48.40
65078;DHT22;51672;51.230;-2.322;2022-07-18T07:02:42;30.20;47.90
65078;DHT22;51672;51.230;-2.322;2022-07-18T07:06:24;30.90;46.10
65078;DHT22;51672;51.230;-2.322;2022-07-18T07:10:11;31.60;44.50
65078;DHT22;51672;51.230;-2.322;2022-07-18T07:13:53;32.30;44.70
65078;DHT22;51672;51.230;-2.322;2022-07-18T07:17:36;33.10;42.80
65078;DHT22;51672;51.230;-2.322;2022-07-18T07:21:26;33.80;41.90
65078;DHT22;51672;51.230;-2.322;2022-07-18T07:25:09;34.60;41.60
65078;DHT22;51672;51.230;-2.322;2022-07-18T07:28:51;35.30;39.30
65078;DHT22;51672;51.230;-2.322;2022-07-18T07:32:44;35.60;39.20
65078;DHT22;51672;51.230;-2.322;2022-07-18T07:36:26;36.10;41.40
65078;DHT22;51672;51.230;-2.322;2022-07-18T07:40:09;36.80;38.10
65078;DHT22;51672;51.230;-2.322;2022-07-18T07:43:58;37.70;37.20
65078;DHT22;51672;51.230;-2.322;2022-07-18T07:47:40;38.50;37.30
65078;DHT22;51672;51.230;-2.322;2022-07-18T07:51:22;39.30;35.60
65078;DHT22;51672;51.230;-2.322;2022-07-18T07:55:17;40.30;34.60
65078;DHT22;51672;51.230;-2.322;2022-07-18T07:58:59;41.00;35.90
65078;DHT22;51672;51.230;-2.322;2022-07-18T08:06:43;42.60;32.00
65078;DHT22;51672;51.230;-2.322;2022-07-18T08:14:41;43.40;32.00
65078;DHT22;51672;51.230;-2.322;2022-07-18T08:27:01;41.60;35.50
65078;DHT22;51672;51.230;-2.322;2022-07-18T08:35:09;41.20;35.60
65078;DHT22;51672;51.230;-2.322;2022-07-18T08:39:11;42.40;32.30
65078;DHT22;51672;51.230;-2.322;2022-07-18T08:42:56;44.00;33.20
65078;DHT22;51672;51.230;-2.322;2022-07-18T08:47:06;45.20;29.80
65078;DHT22;51672;51.230;-2.322;2022-07-18T08:50:49;45.10;29.50
65078;DHT22;51672;51.230;-2.322;2022-07-18T08:58:38;43.30;30.70
65078;DHT22;51672;51.230;-2.322;2022-07-18T09:03:02;43.70;30.20
65078;DHT22;51672;51.230;-2.322;2022-07-18T09:11:00;45.60;30.30
65078;DHT22;51672;51.230;-2.322;2022-07-18T09:18:52;47.30;29.80
65078;DHT22;51672;51.230;-2.322;2022-07-18T09:26:45;49.50;28.00
65078;DHT22;51672;51.230;-2.322;2022-07-18T09:34:42;50.70;28.20
65078;DHT22;51672;51.230;-2.322;2022-07-18T09:42:31;51.40;26.30
65078;DHT22;51672;51.230;-2.322;2022-07-18T09:50:30;52.00;27.20
65078;DHT22;51672;51.230;-2.322;2022-07-18T09:58:23;52.60;25.20
65078;DHT22;51672;51.230;-2.322;2022-07-18T10:02:30;53.10;25.50
65078;DHT22;51672;51.230;-2.322;2022-07-18T10:06:14;53.80;26.60
65078;DHT22;51672;51.230;-2.322;2022-07-18T10:14:03;53.70;25.10
65078;DHT22;51672;51.230;-2.322;2022-07-18T10:21:59;52.90;26.40
65078;DHT22;51672;51.230;-2.322;2022-07-18T10:34:31;52.80;25.00
65078;DHT22;51672;51.230;-2.322;2022-07-18T10:51:19;52.60;26.10
65078;DHT22;51672;51.230;-2.322;2022-07-18T10:59:20;52.20;25.10
65078;DHT22;51672;51.230;-2.322;2022-07-18T11:03:25;51.60;25.70
65078;DHT22;51672;51.230;-2.322;2022-07-18T11:07:13;50.60;26.00
65078;DHT22;51672;51.230;-2.322;2022-07-18T11:11:17;49.40;26.20
65078;DHT22;51672;51.230;-2.322;2022-07-18T11:15:04;48.20;26.70
65078;DHT22;51672;51.230;-2.322;2022-07-18T11:22:54;46.10;27.40
65078;DHT22;51672;51.230;-2.322;2022-07-18T11:30:40;44.20;27.90
65078;DHT22;51672;51.230;-2.322;2022-07-18T11:38:38;42.20;29.00
65078;DHT22;51672;51.230;-2.322;2022-07-18T11:46:27;41.10;29.50
65078;DHT22;51672;51.230;-2.322;2022-07-18T11:58:52;39.40;30.20
65078;DHT22;51672;51.230;-2.322;2022-07-18T12:11:24;38.50;30.60
65078;DHT22;51672;51.230;-2.322;2022-07-18T12:15:37;38.30;30.50
65078;DHT22;51672;51.230;-2.322;2022-07-18T12:19:21;38.00;31.20
65078;DHT22;51672;51.230;-2.322;2022-07-18T12:23:31;37.80;32.00
65078;DHT22;51672;51.230;-2.322;2022-07-18T12:31:40;37.70;32.30
65078;DHT22;51672;51.230;-2.322;2022-07-18T12:44:06;37.60;32.80
65078;DHT22;51672;51.230;-2.322;2022-07-18T13:09:53;38.20;31.40
65078;DHT22;51672;51.230;-2.322;2022-07-18T13:17:47;38.10;32.40
65078;DHT22;51672;51.230;-2.322;2022-07-18T13:25:42;38.20;31.80
65078;DHT22;51672;51.230;-2.322;2022-07-18T13:33:35;38.40;31.90
65078;DHT22;51672;51.230;-2.322;2022-07-18T13:41:29;38.40;32.00
65078;DHT22;51672;51.230;-2.322;2022-07-18T13:49:22;38.40;31.80
65078;DHT22;51672;51.230;-2.322;2022-07-18T13:57:12;38.50;31.40
65078;DHT22;51672;51.230;-2.322;2022-07-18T14:05:05;38.40;30.90
65078;DHT22;51672;51.230;-2.322;2022-07-18T14:22:01;37.90;30.90
65078;DHT22;51672;51.230;-2.322;2022-07-18T14:29:52;37.60;30.70
65078;DHT22;51672;51.230;-2.322;2022-07-18T14:37:45;37.30;30.60
65078;DHT22;51672;51.230;-2.322;2022-07-18T14:45:37;37.00;31.10
65078;DHT22;51672;51.230;-2.322;2022-07-18T14:49:54;36.90;30.50
65078;DHT22;51672;51.230;-2.322;2022-07-18T14:53:37;36.70;31.20
65078;DHT22;51672;51.230;-2.322;2022-07-18T15:01:50;36.30;30.90
65078;DHT22;51672;51.230;-2.322;2022-07-18T15:05:59;36.20;31.20
65078;DHT22;51672;51.230;-2.322;2022-07-18T15:18:19;35.60;31.90
65078;DHT22;51672;51.230;-2.322;2022-07-18T15:26:14;35.30;32.00
65078;DHT22;51672;51.230;-2.322;2022-07-18T15:38:38;34.90;31.60
65078;DHT22;51672;51.230;-2.322;2022-07-18T15:51:01;34.70;31.30
65078;DHT22;51672;51.230;-2.322;2022-07-18T15:58:54;34.50;31.80
65078;DHT22;51672;51.230;-2.322;2022-07-18T16:11:15;34.20;31.70
65078;DHT22;51672;51.230;-2.322;2022-07-18T16:19:04;34.10;31.90
65078;DHT22;51672;51.230;-2.322;2022-07-18T16:27:03;34.00;31.50
65078;DHT22;51672;51.230;-2.322;2022-07-18T16:34:49;33.80;31.40
65078;DHT22;51672;51.230;-2.322;2022-07-18T16:38:43;33.80;31.40
65078;DHT22;51672;51.230;-2.322;2022-07-18T16:42:50;33.70;31.20
65078;DHT22;51672;51.230;-2.322;2022-07-18T16:50:43;33.50;31.40
65078;DHT22;51672;51.230;-2.322;2022-07-18T16:58:38;33.50;32.20
65078;DHT22;51672;51.230;-2.322;2022-07-18T17:11:02;33.30;31.90
65078;DHT22;51672;51.230;-2.322;2022-07-18T17:18:51;33.20;32.50
65078;DHT22;51672;51.230;-2.322;2022-07-18T17:26:45;33.00;33.00
65078;DHT22;51672;51.230;-2.322;2022-07-18T17:34:36;32.80;33.60
65078;DHT22;51672;51.230;-2.322;2022-07-18T17:42:33;32.70;34.40
65078;DHT22;51672;51.230;-2.322;2022-07-18T17:54:55;32.40;34.80
65078;DHT22;51672;51.230;-2.322;2022-07-18T18:02:47;32.20;35.60
65078;DHT22;51672;51.230;-2.322;2022-07-18T18:10:41;32.00;35.50
65078;DHT22;51672;51.230;-2.322;2022-07-18T18:18:33;31.90;36.40
65078;DHT22;51672;51.230;-2.322;2022-07-18T18:26:33;31.70;36.40
65078;DHT22;51672;51.230;-2.322;2022-07-18T18:30:37;31.60;37.30
65078;DHT22;51672;51.230;-2.322;2022-07-18T18:34:22;31.50;36.70
65078;DHT22;51672;51.230;-2.322;2022-07-18T18:38:07;31.40;38.10
65078;DHT22;51672;51.230;-2.322;2022-07-18T18:42:11;31.30;38.70
65078;DHT22;51672;51.230;-2.322;2022-07-18T18:50:11;31.10;37.80
65078;DHT22;51672;51.230;-2.322;2022-07-18T18:57:57;30.90;39.20
65078;DHT22;51672;51.230;-2.322;2022-07-18T19:05:52;30.60;38.90
65078;DHT22;51672;51.230;-2.322;2022-07-18T19:09:39;30.50;40.40
65078;DHT22;51672;51.230;-2.322;2022-07-18T19:13:46;30.30;40.50
65078;DHT22;51672;51.230;-2.322;2022-07-18T19:21:37;30.00;40.40
65078;DHT22;51672;51.230;-2.322;2022-07-18T19:29:34;29.70;40.80
65078;DHT22;51672;51.230;-2.322;2022-07-18T19:41:53;29.30;43.10
65078;DHT22;51672;51.230;-2.322;2022-07-18T19:49:52;28.90;42.50
65078;DHT22;51672;51.230;-2.322;2022-07-18T20:02:11;28.40;42.70
65078;DHT22;51672;51.230;-2.322;2022-07-18T20:05:58;28.30;44.00
65078;DHT22;51672;51.230;-2.322;2022-07-18T20:10:07;28.10;44.00
65078;DHT22;51672;51.230;-2.322;2022-07-18T20:22:29;27.60;42.70
65078;DHT22;51672;51.230;-2.322;2022-07-18T20:26:11;27.50;44.00
65078;DHT22;51672;51.230;-2.322;2022-07-18T20:29:53;27.30;43.90
65078;DHT22;51672;51.230;-2.322;2022-07-18T20:33:35;27.20;43.50
65078;DHT22;51672;51.230;-2.322;2022-07-18T20:37:17;27.10;43.70
65078;DHT22;51672;51.230;-2.322;2022-07-18T20:40:59;26.90;44.10
65078;DHT22;51672;51.230;-2.322;2022-07-18T20:44:41;26.80;44.70
65078;DHT22;51672;51.230;-2.322;2022-07-18T20:48:23;26.60;44.80
65078;DHT22;51672;51.230;-2.322;2022-07-18T20:52:05;26.50;44.80
65078;DHT22;51672;51.230;-2.322;2022-07-18T20:55:47;26.30;45.00
65078;DHT22;51672;51.230;-2.322;2022-07-18T20:59:29;26.20;45.10
65078;DHT22;51672;51.230;-2.322;2022-07-18T21:03:11;26.10;45.80
65078;DHT22;51672;51.230;-2.322;2022-07-18T21:06:54;26.00;47.50
65078;DHT22;51672;51.230;-2.322;2022-07-18T21:10:36;25.90;47.40
65078;DHT22;51672;51.230;-2.322;2022-07-18T21:14:18;25.70;47.00
65078;DHT22;51672;51.230;-2.322;2022-07-18T21:18:19;25.60;46.70
65078;DHT22;51672;51.230;-2.322;2022-07-18T21:22:01;25.50;46.60
65078;DHT22;51672;51.230;-2.322;2022-07-18T21:25:50;25.40;46.40
65078;DHT22;51672;51.230;-2.322;2022-07-18T21:29:33;25.30;46.40
65078;DHT22;51672;51.230;-2.322;2022-07-18T21:33:15;25.20;46.80
65078;DHT22;51672;51.230;-2.322;2022-07-18T21:36:57;25.20;46.80
65078;DHT22;51672;51.230;-2.322;2022-07-18T21:40:39;25.10;46.40
65078;DHT22;51672;51.230;-2.322;2022-07-18T21:44:21;25.00;47.30
65078;DHT22;51672;51.230;-2.322;2022-07-18T21:48:03;24.90;47.60
65078;DHT22;51672;51.230;-2.322;2022-07-18T21:51:45;24.80;47.40
65078;DHT22;51672;51.230;-2.322;2022-07-18T21:55:27;24.70;47.40
65078;DHT22;51672;51.230;-2.322;2022-07-18T21:59:09;24.60;46.90
65078;DHT22;51672;51.230;-2.322;2022-07-18T22:02:51;24.50;47.30
65078;DHT22;51672;51.230;-2.322;2022-07-18T22:06:33;24.50;48.30
65078;DHT22;51672;51.230;-2.322;2022-07-18T22:10:16;24.40;47.50
65078;DHT22;51672;51.230;-2.322;2022-07-18T22:14:02;24.30;49.30
65078;DHT22;51672;51.230;-2.322;2022-07-18T22:17:45;24.20;49.40
65078;DHT22;51672;51.230;-2.322;2022-07-18T22:21:27;24.20;50.10
65078;DHT22;51672;51.230;-2.322;2022-07-18T22:25:10;24.10;50.10
65078;DHT22;51672;51.230;-2.322;2022-07-18T22:28:52;24.10;50.80
65078;DHT22;51672;51.230;-2.322;2022-07-18T22:32:34;24.00;51.30
65078;DHT22;51672;51.230;-2.322;2022-07-18T22:36:16;23.90;48.70
65078;DHT22;51672;51.230;-2.322;2022-07-18T22:39:58;23.90;46.80
65078;DHT22;51672;51.230;-2.322;2022-07-18T22:43:40;24.00;46.20
65078;DHT22;51672;51.230;-2.322;2022-07-18T22:47:22;24.20;45.60
65078;DHT22;51672;51.230;-2.322;2022-07-18T22:51:04;24.30;45.40
65078;DHT22;51672;51.230;-2.322;2022-07-18T22:54:46;24.40;45.90
65078;DHT22;51672;51.230;-2.322;2022-07-18T22:58:28;24.40;45.20
65078;DHT22;51672;51.230;-2.322;2022-07-18T23:02:10;24.40;44.80
65078;DHT22;51672;51.230;-2.322;2022-07-18T23:05:52;24.40;44.70
65078;DHT22;51672;51.230;-2.322;2022-07-18T23:09:35;24.40;45.00
65078;DHT22;51672;51.230;-2.322;2022-07-18T23:13:17;24.40;47.30
65078;DHT22;51672;51.230;-2.322;2022-07-18T23:16:59;24.40;46.10
65078;DHT22;51672;51.230;-2.322;2022-07-18T23:20:41;24.30;47.10
65078;DHT22;51672;51.230;-2.322;2022-07-18T23:24:24;24.20;45.40
65078;DHT22;51672;51.230;-2.322;2022-07-18T23:28:06;24.10;48.20
65078;DHT22;51672;51.230;-2.322;2022-07-18T23:31:48;24.00;45.60
65078;DHT22;51672;51.230;-2.322;2022-07-18T23:35:30;24.00;48.20
65078;DHT22;51672;51.230;-2.322;2022-07-18T23:39:13;23.90;45.40
65078;DHT22;51672;51.230;-2.322;2022-07-18T23:42:55;23.90;45.50
65078;DHT22;51672;51.230;-2.322;2022-07-18T23:46:37;24.00;45.00
65078;DHT22;51672;51.230;-2.322;2022-07-18T23:50:19;24.20;44.80
65078;DHT22;51672;51.230;-2.322;2022-07-18T23:54:01;24.30;44.00
65078;DHT22;51672;51.230;-2.322;2022-07-18T23:57:43;24.50;43.70
